sensor_id;sensor_type;location;lat;lon;timestamp;P1;durP1;ratioP1;P2;durP2;ratioP2
53674;SDS011;39574;50.534;8.500;2023-05-29T00:02:59;2.5;;;0.8;;
53674;SDS011;39574;50.534;8.500;2023-05-29T00:07:58;2.5;;;0.7;;
53674;SDS011;39574;50.534;8.500;2023-05-29T00:13:00;2.6;;;0.9;;
53674;SDS011;39574;50.534;8.500;2023-05-29T00:17:57;2.6;;;0.9;;
53674;SDS011;39574;50.534;8.500;2023-05-29T00:22:56;2.6;;;0.9;;
53674;SDS011;39574;50.534;8.500;2023-05-29T00:32:55;2.5;;;0.9;;
53674;SDS011;39574;50.534;8.500;2023-05-29T00:37:54;2.5;;;0.8;;
53674;SDS011;39574;50.534;8.500;2023-05-29T00:42:53;2.4;;;0.8;;
53674;SDS011;39574;50.534;8.500;2023-05-29T00:47:52;2.4;;;0.7;;
53674;SDS011;39574;50.534;8.500;2023-05-29T00:52:51;3.0;;;1.0;;
53674;SDS011;39574;50.534;8.500;2023-05-29T01:02:49;3.0;;;0.9;;
53674;SDS011;39574;50.534;8.500;2023-05-29T01:07:49;3.0;;;1.1;;
53674;SDS011;39574;50.534;8.500;2023-05-29T01:12:49;2.8;;;1.0;;
53674;SDS011;39574;50.534;8.500;2023-05-29T01:17:54;2.8;;;0.8;;
53674;SDS011;39574;50.534;8.500;2023-05-29T01:22:54;2.6;;;0.7;;
53674;SDS011;39574;50.534;8.500;2023-05-29T01:27:46;2.8;;;0.9;;
53674;SDS011;39574;50.534;8.500;2023-05-29T01:32:46;2.6;;;0.8;;
53674;SDS011;39574;50.534;8.500;2023-05-29T01:37:45;2.5;;;0.7;;
53674;SDS011;39574;50.534;8.500;2023-05-29T01:42:46;2.4;;;0.7;;
53674;SDS011;39574;50.534;8.500;2023-05-29T01:47:43;2.3;;;0.6;;
53674;SDS011;39574;50.534;8.500;2023-05-29T01:52:42;2.4;;;0.6;;
53674;SDS011;39574;50.534;8.500;2023-05-29T01:57:41;2.3;;;0.6;;
53674;SDS011;39574;50.534;8.500;2023-05-29T02:02:40;2.3;;;0.6;;
53674;SDS011;39574;50.534;8.500;2023-05-29T02:07:39;2.4;;;0.7;;
53674;SDS011;39574;50.534;8.500;2023-05-29T02:12:39;2.3;;;0.7;;
53674;SDS011;39574;50.534;8.500;2023-05-29T02:17:38;2.3;;;0.6;;
53674;SDS011;39574;50.534;8.500;2023-05-29T02:22:37;2.3;;;0.6;;
53674;SDS011;39574;50.534;8.500;2023-05-29T02:27:36;2.7;;;1.1;;
53674;SDS011;39574;50.534;8.500;2023-05-29T02:32:35;3.0;;;1.1;;
53674;SDS011;39574;50.534;8.500;2023-05-29T02:37:35;2.9;;;1.0;;
53674;SDS011;39574;50.534;8.500;2023-05-29T02:42:34;2.7;;;0.8;;
53674;SDS011;39574;50.534;8.500;2023-05-29T02:47:33;2.5;;;0.6;;
53674;SDS011;39574;50.534;8.500;2023-05-29T02:52:32;2.4;;;0.6;;
53674;SDS011;39574;50.534;8.500;2023-05-29T02:57:31;2.7;;;0.8;;
53674;SDS011;39574;50.534;8.500;2023-05-29T03:07:30;2.8;;;0.9;;
53674;SDS011;39574;50.534;8.500;2023-05-29T03:12:29;2.6;;;0.8;;
53674;SDS011;39574;50.534;8.500;2023-05-29T03:17:28;3.0;;;0.9;;
53674;SDS011;39574;50.534;8.500;2023-05-29T03:22:28;3.1;;;0.9;;
53674;SDS011;39574;50.534;8.500;2023-05-29T03:27:27;2.8;;;0.8;;
53674;SDS011;39574;50.534;8.500;2023-05-29T03:32:26;3.2;;;1.1;;
53674;SDS011;39574;50.534;8.500;2023-05-29T03:37:25;3.3;;;0.9;;
53674;SDS011;39574;50.534;8.500;2023-05-29T03:42:24;3.0;;;0.8;;
53674;SDS011;39574;50.534;8.500;2023-05-29T03:47:23;2.8;;;0.8;;
53674;SDS011;39574;50.534;8.500;2023-05-29T03:52:23;2.6;;;0.8;;
53674;SDS011;39574;50.534;8.500;2023-05-29T03:57:22;2.4;;;0.8;;
53674;SDS011;39574;50.534;8.500;2023-05-29T04:02:21;2.5;;;0.8;;
53674;SDS011;39574;50.534;8.500;2023-05-29T04:07:20;2.4;;;0.7;;
53674;SDS011;39574;50.534;8.500;2023-05-29T04:12:19;3.1;;;0.8;;
53674;SDS011;39574;50.534;8.500;2023-05-29T04:17:18;2.9;;;0.7;;
53674;SDS011;39574;50.534;8.500;2023-05-29T04:22:18;2.7;;;0.8;;
53674;SDS011;39574;50.534;8.500;2023-05-29T04:27:17;2.8;;;0.9;;
53674;SDS011;39574;50.534;8.500;2023-05-29T04:32:16;2.6;;;0.9;;
53674;SDS011;39574;50.534;8.500;2023-05-29T04:37:15;2.5;;;0.8;;
53674;SDS011;39574;50.534;8.500;2023-05-29T04:42:14;4.7;;;0.9;;
53674;SDS011;39574;50.534;8.500;2023-05-29T04:47:14;4.1;;;0.8;;
53674;SDS011;39574;50.534;8.500;2023-05-29T04:52:13;3.5;;;0.8;;
53674;SDS011;39574;50.534;8.500;2023-05-29T04:57:12;2.9;;;0.7;;
53674;SDS011;39574;50.534;8.500;2023-05-29T05:02:11;2.6;;;0.8;;
53674;SDS011;39574;50.534;8.500;2023-05-29T05:07:10;3.6;;;0.7;;
53674;SDS011;39574;50.534;8.500;2023-05-29T05:12:09;3.4;;;0.8;;
53674;SDS011;39574;50.534;8.500;2023-05-29T05:17:09;3.4;;;1.1;;
53674;SDS011;39574;50.534;8.500;2023-05-29T05:22:08;3.0;;;0.9;;
53674;SDS011;39574;50.534;8.500;2023-05-29T05:27:07;2.5;;;0.8;;
53674;SDS011;39574;50.534;8.500;2023-05-29T05:32:06;2.4;;;0.8;;
53674;SDS011;39574;50.534;8.500;2023-05-29T05:37:05;2.3;;;0.7;;
53674;SDS011;39574;50.534;8.500;2023-05-29T05:42:05;2.4;;;0.7;;
53674;SDS011;39574;50.534;8.500;2023-05-29T05:47:04;2.3;;;0.6;;
53674;SDS011;39574;50.534;8.500;2023-05-29T05:52:03;2.3;;;0.5;;
53674;SDS011;39574;50.534;8.500;2023-05-29T05:57:02;2.4;;;0.7;;
53674;SDS011;39574;50.534;8.500;2023-05-29T06:02:01;2.5;;;0.7;;
53674;SDS011;39574;50.534;8.500;2023-05-29T06:07:00;2.5;;;0.7;;
53674;SDS011;39574;50.534;8.500;2023-05-29T06:12:00;2.5;;;0.8;;
53674;SDS011;39574;50.534;8.500;2023-05-29T06:16:59;2.4;;;0.7;;
53674;SDS011;39574;50.534;8.500;2023-05-29T06:21:58;2.3;;;0.6;;
53674;SDS011;39574;50.534;8.500;2023-05-29T06:26:57;2.4;;;0.7;;
53674;SDS011;39574;50.534;8.500;2023-05-29T06:31:57;3.0;;;1.0;;
53674;SDS011;39574;50.534;8.500;2023-05-29T06:36:56;2.8;;;0.9;;
53674;SDS011;39574;50.534;8.500;2023-05-29T06:41:55;2.6;;;0.8;;
53674;SDS011;39574;50.534;8.500;2023-05-29T06:46:55;2.5;;;0.7;;
53674;SDS011;39574;50.534;8.500;2023-05-29T06:51:53;2.5;;;0.7;;
53674;SDS011;39574;50.534;8.500;2023-05-29T06:56:53;2.9;;;0.9;;
53674;SDS011;39574;50.534;8.500;2023-05-29T07:01:52;3.2;;;1.1;;
53674;SDS011;39574;50.534;8.500;2023-05-29T07:06:52;2.9;;;0.9;;
53674;SDS011;39574;50.534;8.500;2023-05-29T07:11:51;3.1;;;1.1;;
53674;SDS011;39574;50.534;8.500;2023-05-29T07:16:50;3.0;;;1.1;;
53674;SDS011;39574;50.534;8.500;2023-05-29T07:26:49;2.7;;;0.9;;
53674;SDS011;39574;50.534;8.500;2023-05-29T07:31:48;2.6;;;0.8;;
53674;SDS011;39574;50.534;8.500;2023-05-29T07:36:55;2.4;;;0.7;;
53674;SDS011;39574;50.534;8.500;2023-05-29T07:41:46;2.5;;;0.8;;
53674;SDS011;39574;50.534;8.500;2023-05-29T07:46:46;2.4;;;0.6;;
53674;SDS011;39574;50.534;8.500;2023-05-29T07:51:45;2.8;;;0.8;;
53674;SDS011;39574;50.534;8.500;2023-05-29T08:01:44;3.1;;;0.9;;
53674;SDS011;39574;50.534;8.500;2023-05-29T08:06:44;3.0;;;0.8;;
53674;SDS011;39574;50.534;8.500;2023-05-29T08:11:47;2.8;;;0.8;;
53674;SDS011;39574;50.534;8.500;2023-05-29T08:16:42;2.8;;;0.8;;
53674;SDS011;39574;50.534;8.500;2023-05-29T08:21:42;2.9;;;0.8;;
53674;SDS011;39574;50.534;8.500;2023-05-29T08:26:41;2.7;;;0.8;;
53674;SDS011;39574;50.534;8.500;2023-05-29T08:31:40;2.7;;;0.8;;
53674;SDS011;39574;50.534;8.500;2023-05-29T08:36:41;2.6;;;0.7;;
53674;SDS011;39574;50.534;8.500;2023-05-29T08:41:41;2.7;;;0.8;;
53674;SDS011;39574;50.534;8.500;2023-05-29T08:46:39;3.9;;;0.8;;
53674;SDS011;39574;50.534;8.500;2023-05-29T08:51:40;4.1;;;0.8;;
53674;SDS011;39574;50.534;8.500;2023-05-29T08:56:38;3.8;;;0.9;;
53674;SDS011;39574;50.534;8.500;2023-05-29T09:01:38;3.4;;;0.9;;
53674;SDS011;39574;50.534;8.500;2023-05-29T09:06:40;2.8;;;0.9;;
53674;SDS011;39574;50.534;8.500;2023-05-29T09:11:36;2.5;;;0.7;;
53674;SDS011;39574;50.534;8.500;2023-05-29T09:16:40;2.3;;;0.6;;
53674;SDS011;39574;50.534;8.500;2023-05-29T09:21:36;2.4;;;0.7;;
53674;SDS011;39574;50.534;8.500;2023-05-29T09:31:35;2.8;;;0.7;;
53674;SDS011;39574;50.534;8.500;2023-05-29T09:36:37;4.1;;;1.0;;
53674;SDS011;39574;50.534;8.500;2023-05-29T09:41:33;3.6;;;0.9;;
53674;SDS011;39574;50.534;8.500;2023-05-29T09:46:36;3.1;;;0.8;;
53674;SDS011;39574;50.534;8.500;2023-05-29T09:51:33;2.8;;;0.7;;
53674;SDS011;39574;50.534;8.500;2023-05-29T09:56:32;2.5;;;0.7;;
53674;SDS011;39574;50.534;8.500;2023-05-29T10:01:32;2.6;;;0.8;;
53674;SDS011;39574;50.534;8.500;2023-05-29T10:06:32;2.5;;;0.7;;
53674;SDS011;39574;50.534;8.500;2023-05-29T10:11:32;3.3;;;0.8;;
53674;SDS011;39574;50.534;8.500;2023-05-29T10:16:31;3.3;;;0.8;;
53674;SDS011;39574;50.534;8.500;2023-05-29T10:21:31;3.4;;;0.9;;
53674;SDS011;39574;50.534;8.500;2023-05-29T10:26:31;3.1;;;0.8;;
53674;SDS011;39574;50.534;8.500;2023-05-29T10:31:42;2.6;;;0.7;;
53674;SDS011;39574;50.534;8.500;2023-05-29T10:36:30;2.9;;;0.8;;
53674;SDS011;39574;50.534;8.500;2023-05-29T10:41:31;3.0;;;0.7;;
53674;SDS011;39574;50.534;8.500;2023-05-29T10:47:03;2.9;;;0.7;;
53674;SDS011;39574;50.534;8.500;2023-05-29T10:51:29;2.9;;;0.8;;
53674;SDS011;39574;50.534;8.500;2023-05-29T10:56:29;2.8;;;0.8;;
53674;SDS011;39574;50.534;8.500;2023-05-29T11:01:29;2.6;;;0.6;;
53674;SDS011;39574;50.534;8.500;2023-05-29T11:06:28;2.5;;;0.7;;
53674;SDS011;39574;50.534;8.500;2023-05-29T11:11:29;2.4;;;0.6;;
53674;SDS011;39574;50.534;8.500;2023-05-29T11:16:35;2.5;;;0.7;;
53674;SDS011;39574;50.534;8.500;2023-05-29T11:21:29;3.4;;;1.0;;
53674;SDS011;39574;50.534;8.500;2023-05-29T11:26:27;3.2;;;0.9;;
53674;SDS011;39574;50.534;8.500;2023-05-29T11:31:28;3.5;;;1.3;;
53674;SDS011;39574;50.534;8.500;2023-05-29T11:36:30;3.1;;;1.0;;
53674;SDS011;39574;50.534;8.500;2023-05-29T11:41:27;2.8;;;0.9;;
53674;SDS011;39574;50.534;8.500;2023-05-29T11:46:26;3.6;;;1.2;;
53674;SDS011;39574;50.534;8.500;2023-05-29T11:51:26;3.2;;;1.0;;
53674;SDS011;39574;50.534;8.500;2023-05-29T11:56:26;2.8;;;0.7;;
53674;SDS011;39574;50.534;8.500;2023-05-29T12:01:25;2.6;;;0.7;;
53674;SDS011;39574;50.534;8.500;2023-05-29T12:06:30;2.6;;;0.8;;
53674;SDS011;39574;50.534;8.500;2023-05-29T12:11:25;2.6;;;0.6;;
53674;SDS011;39574;50.534;8.500;2023-05-29T12:16:25;2.5;;;0.6;;
53674;SDS011;39574;50.534;8.500;2023-05-29T12:21:24;2.4;;;0.5;;
53674;SDS011;39574;50.534;8.500;2023-05-29T12:26:26;2.5;;;0.6;;
53674;SDS011;39574;50.534;8.500;2023-05-29T12:31:26;2.8;;;0.7;;
53674;SDS011;39574;50.534;8.500;2023-05-29T12:36:25;2.8;;;0.8;;
53674;SDS011;39574;50.534;8.500;2023-05-29T12:41:24;2.6;;;0.7;;
53674;SDS011;39574;50.534;8.500;2023-05-29T12:46:24;2.5;;;0.6;;
53674;SDS011;39574;50.534;8.500;2023-05-29T12:51:26;2.5;;;0.6;;
53674;SDS011;39574;50.534;8.500;2023-05-29T12:56:24;2.6;;;0.6;;
53674;SDS011;39574;50.534;8.500;2023-05-29T13:01:23;2.6;;;0.6;;
53674;SDS011;39574;50.534;8.500;2023-05-29T13:06:23;2.7;;;0.7;;
53674;SDS011;39574;50.534;8.500;2023-05-29T13:11:22;4.7;;;0.8;;
53674;SDS011;39574;50.534;8.500;2023-05-29T13:16:24;4.1;;;0.7;;
53674;SDS011;39574;50.534;8.500;2023-05-29T13:26:22;3.6;;;0.8;;
53674;SDS011;39574;50.534;8.500;2023-05-29T13:31:22;2.9;;;0.7;;
53674;SDS011;39574;50.534;8.500;2023-05-29T13:36:21;2.3;;;0.6;;
53674;SDS011;39574;50.534;8.500;2023-05-29T13:41:21;2.4;;;0.5;;
53674;SDS011;39574;50.534;8.500;2023-05-29T13:46:21;2.7;;;0.6;;
53674;SDS011;39574;50.534;8.500;2023-05-29T13:51:21;2.9;;;0.8;;
53674;SDS011;39574;50.534;8.500;2023-05-29T13:56:20;2.9;;;0.9;;
53674;SDS011;39574;50.534;8.500;2023-05-29T14:01:20;3.1;;;1.1;;
53674;SDS011;39574;50.534;8.500;2023-05-29T14:06:20;2.9;;;0.9;;
53674;SDS011;39574;50.534;8.500;2023-05-29T14:11:20;2.7;;;0.7;;
53674;SDS011;39574;50.534;8.500;2023-05-29T14:16:20;3.0;;;0.8;;
53674;SDS011;39574;50.534;8.500;2023-05-29T14:21:20;2.9;;;0.7;;
53674;SDS011;39574;50.534;8.500;2023-05-29T14:26:20;2.8;;;0.8;;
53674;SDS011;39574;50.534;8.500;2023-05-29T14:31:21;2.7;;;0.8;;
53674;SDS011;39574;50.534;8.500;2023-05-29T14:36:20;2.8;;;1.0;;
53674;SDS011;39574;50.534;8.500;2023-05-29T14:41:20;3.0;;;0.9;;
53674;SDS011;39574;50.534;8.500;2023-05-29T14:46:19;3.0;;;0.9;;
53674;SDS011;39574;50.534;8.500;2023-05-29T14:51:18;2.8;;;0.7;;
53674;SDS011;39574;50.534;8.500;2023-05-29T14:56:18;2.6;;;0.7;;
53674;SDS011;39574;50.534;8.500;2023-05-29T15:01:18;2.5;;;0.7;;
53674;SDS011;39574;50.534;8.500;2023-05-29T15:06:20;2.3;;;0.6;;
53674;SDS011;39574;50.534;8.500;2023-05-29T15:11:18;2.3;;;0.5;;
53674;SDS011;39574;50.534;8.500;2023-05-29T15:16:18;2.2;;;0.5;;
53674;SDS011;39574;50.534;8.500;2023-05-29T15:21:20;2.6;;;0.6;;
53674;SDS011;39574;50.534;8.500;2023-05-29T15:26:17;2.6;;;0.6;;
53674;SDS011;39574;50.534;8.500;2023-05-29T15:31:21;2.6;;;0.7;;
53674;SDS011;39574;50.534;8.500;2023-05-29T15:36:17;3.0;;;0.8;;
53674;SDS011;39574;50.534;8.500;2023-05-29T15:41:16;2.9;;;0.8;;
53674;SDS011;39574;50.534;8.500;2023-05-29T15:46:16;2.8;;;0.8;;
53674;SDS011;39574;50.534;8.500;2023-05-29T15:51:20;3.5;;;0.9;;
53674;SDS011;39574;50.534;8.500;2023-05-29T15:56:16;3.2;;;0.8;;
53674;SDS011;39574;50.534;8.500;2023-05-29T16:01:16;3.0;;;0.7;;
53674;SDS011;39574;50.534;8.500;2023-05-29T16:06:15;3.0;;;0.8;;
53674;SDS011;39574;50.534;8.500;2023-05-29T16:11:18;2.7;;;0.7;;
53674;SDS011;39574;50.534;8.500;2023-05-29T16:21:15;3.0;;;0.6;;
53674;SDS011;39574;50.534;8.500;2023-05-29T16:26:15;2.8;;;0.6;;
53674;SDS011;39574;50.534;8.500;2023-05-29T16:31:16;3.2;;;0.8;;
53674;SDS011;39574;50.534;8.500;2023-05-29T16:36:14;3.2;;;1.0;;
53674;SDS011;39574;50.534;8.500;2023-05-29T16:41:13;3.0;;;1.0;;
53674;SDS011;39574;50.534;8.500;2023-05-29T16:46:13;3.1;;;1.1;;
53674;SDS011;39574;50.534;8.500;2023-05-29T16:51:15;2.7;;;0.8;;
53674;SDS011;39574;50.534;8.500;2023-05-29T17:01:13;2.7;;;0.8;;
53674;SDS011;39574;50.534;8.500;2023-05-29T17:11:12;2.5;;;0.7;;
53674;SDS011;39574;50.534;8.500;2023-05-29T17:16:11;2.5;;;0.8;;
53674;SDS011;39574;50.534;8.500;2023-05-29T17:21:11;2.4;;;0.7;;
53674;SDS011;39574;50.534;8.500;2023-05-29T17:26:11;2.7;;;0.8;;
53674;SDS011;39574;50.534;8.500;2023-05-29T17:31:10;2.9;;;1.0;;
53674;SDS011;39574;50.534;8.500;2023-05-29T17:36:10;2.8;;;1.0;;
53674;SDS011;39574;50.534;8.500;2023-05-29T17:41:09;2.9;;;0.8;;
53674;SDS011;39574;50.534;8.500;2023-05-29T17:46:09;2.7;;;0.8;;
53674;SDS011;39574;50.534;8.500;2023-05-29T17:51:09;2.5;;;0.7;;
53674;SDS011;39574;50.534;8.500;2023-05-29T17:56:08;2.3;;;0.6;;
53674;SDS011;39574;50.534;8.500;2023-05-29T18:01:08;2.2;;;0.5;;
53674;SDS011;39574;50.534;8.500;2023-05-29T18:06:08;2.7;;;0.6;;
53674;SDS011;39574;50.534;8.500;2023-05-29T18:11:07;2.6;;;0.5;;
53674;SDS011;39574;50.534;8.500;2023-05-29T18:16:06;2.6;;;0.6;;
53674;SDS011;39574;50.534;8.500;2023-05-29T18:21:06;2.4;;;0.6;;
53674;SDS011;39574;50.534;8.500;2023-05-29T18:26:05;2.8;;;0.8;;
53674;SDS011;39574;50.534;8.500;2023-05-29T18:31:05;2.7;;;0.8;;
53674;SDS011;39574;50.534;8.500;2023-05-29T18:36:04;2.6;;;0.8;;
53674;SDS011;39574;50.534;8.500;2023-05-29T18:46:04;3.2;;;0.8;;
53674;SDS011;39574;50.534;8.500;2023-05-29T18:51:03;2.9;;;0.8;;
53674;SDS011;39574;50.534;8.500;2023-05-29T18:56:03;2.8;;;0.8;;
53674;SDS011;39574;50.534;8.500;2023-05-29T19:06:01;2.9;;;1.0;;
53674;SDS011;39574;50.534;8.500;2023-05-29T19:11:01;2.8;;;0.9;;
53674;SDS011;39574;50.534;8.500;2023-05-29T19:16:00;2.7;;;0.9;;
53674;SDS011;39574;50.534;8.500;2023-05-29T19:21:00;2.6;;;0.7;;
53674;SDS011;39574;50.534;8.500;2023-05-29T19:25:59;2.5;;;0.6;;
53674;SDS011;39574;50.534;8.500;2023-05-29T19:30:58;2.6;;;0.7;;
53674;SDS011;39574;50.534;8.500;2023-05-29T19:35:58;2.7;;;0.8;;
53674;SDS011;39574;50.534;8.500;2023-05-29T19:41:00;2.6;;;0.8;;
53674;SDS011;39574;50.534;8.500;2023-05-29T19:45:57;2.8;;;0.9;;
53674;SDS011;39574;50.534;8.500;2023-05-29T19:50:56;2.6;;;0.7;;
53674;SDS011;39574;50.534;8.500;2023-05-29T19:55:56;2.7;;;0.7;;
53674;SDS011;39574;50.534;8.500;2023-05-29T20:00:55;3.3;;;0.7;;
53674;SDS011;39574;50.534;8.500;2023-05-29T20:05:54;3.2;;;0.8;;
53674;SDS011;39574;50.534;8.500;2023-05-29T20:10:54;3.0;;;0.8;;
53674;SDS011;39574;50.534;8.500;2023-05-29T20:15:56;2.8;;;0.8;;
53674;SDS011;39574;50.534;8.500;2023-05-29T20:25:52;3.0;;;0.7;;
53674;SDS011;39574;50.534;8.500;2023-05-29T20:30:51;2.9;;;0.7;;
53674;SDS011;39574;50.534;8.500;2023-05-29T20:35:50;2.9;;;0.8;;
53674;SDS011;39574;50.534;8.500;2023-05-29T20:40:53;2.7;;;0.7;;
53674;SDS011;39574;50.534;8.500;2023-05-29T20:45:50;2.8;;;0.7;;
53674;SDS011;39574;50.534;8.500;2023-05-29T20:50:49;3.0;;;0.7;;
53674;SDS011;39574;50.534;8.500;2023-05-29T21:00:47;3.0;;;0.6;;
53674;SDS011;39574;50.534;8.500;2023-05-29T21:05:46;2.9;;;0.5;;
53674;SDS011;39574;50.534;8.500;2023-05-29T21:10:46;3.0;;;0.7;;
53674;SDS011;39574;50.534;8.500;2023-05-29T21:15:49;2.6;;;0.6;;
53674;SDS011;39574;50.534;8.500;2023-05-29T21:20:44;2.5;;;0.7;;
53674;SDS011;39574;50.534;8.500;2023-05-29T21:25:44;2.5;;;0.7;;
53674;SDS011;39574;50.534;8.500;2023-05-29T21:30:43;4.0;;;0.7;;
53674;SDS011;39574;50.534;8.500;2023-05-29T21:35:42;3.6;;;0.7;;
53674;SDS011;39574;50.534;8.500;2023-05-29T21:40:41;3.6;;;0.7;;
53674;SDS011;39574;50.534;8.500;2023-05-29T21:45:41;3.1;;;0.7;;
53674;SDS011;39574;50.534;8.500;2023-05-29T21:50:40;2.7;;;0.7;;
53674;SDS011;39574;50.534;8.500;2023-05-29T21:55:39;2.6;;;0.7;;
53674;SDS011;39574;50.534;8.500;2023-05-29T22:00:39;2.5;;;0.7;;
53674;SDS011;39574;50.534;8.500;2023-05-29T22:05:38;2.5;;;0.7;;
53674;SDS011;39574;50.534;8.500;2023-05-29T22:10:37;3.0;;;1.0;;
53674;SDS011;39574;50.534;8.500;2023-05-29T22:15:37;2.8;;;0.9;;
53674;SDS011;39574;50.534;8.500;2023-05-29T22:25:35;2.7;;;0.8;;
53674;SDS011;39574;50.534;8.500;2023-05-29T22:30:34;3.3;;;0.9;;
53674;SDS011;39574;50.534;8.500;2023-05-29T22:35:33;2.9;;;0.7;;
53674;SDS011;39574;50.534;8.500;2023-05-29T22:40:37;2.7;;;0.8;;
53674;SDS011;39574;50.534;8.500;2023-05-29T22:45:32;3.0;;;0.8;;
53674;SDS011;39574;50.534;8.500;2023-05-29T22:50:31;2.9;;;0.8;;
53674;SDS011;39574;50.534;8.500;2023-05-29T22:55:30;2.7;;;0.8;;
53674;SDS011;39574;50.534;8.500;2023-05-29T23:00:29;2.5;;;0.7;;
53674;SDS011;39574;50.534;8.500;2023-05-29T23:05:29;2.5;;;0.8;;
53674;SDS011;39574;50.534;8.500;2023-05-29T23:10:28;2.4;;;0.7;;
53674;SDS011;39574;50.534;8.500;2023-05-29T23:15:27;2.5;;;0.7;;
53674;SDS011;39574;50.534;8.500;2023-05-29T23:20:27;2.7;;;0.9;;
53674;SDS011;39574;50.534;8.500;2023-05-29T23:25:26;3.7;;;0.9;;
53674;SDS011;39574;50.534;8.500;2023-05-29T23:30:25;3.4;;;0.9;;
53674;SDS011;39574;50.534;8.500;2023-05-29T23:35:24;3.4;;;1.1;;
53674;SDS011;39574;50.534;8.500;2023-05-29T23:40:23;3.2;;;1.1;;
53674;SDS011;39574;50.534;8.500;2023-05-29T23:45:23;2.8;;;0.9;;
53674;SDS011;39574;50.534;8.500;2023-05-29T23:50:22;2.6;;;0.8;;
53674;SDS011;39574;50.534;8.500;2023-05-29T23:55:21;2.9;;;0.8;;
